Terminal Aerodrome Forecast
Issued by NWS Tulsa, OK

Home | Current Version | Previous Version | Text Only | Print | Product List | Glossary On
Versions: 1 2 3 4 5 6 7 8 9 10 11 12
583
FTUS44 KTSA 250520
TAFFSM
TAF
KFSM 250520Z 2506/2606 09004KT P6SM SCT250
     FM251500 08005KT P6SM VCTS SCT050CB BKN250
     FM251800 08005KT P6SM SCT050 BKN250 PROB30 2518/2524 5SM -TSRA
      BKN040CB
     FM260000 09003KT P6SM BKN250=

USA.gov is the U.S. government's official web portal to all federal, state and local government web resources and services.